Terminal Aerodrome Forecast
Issued by NWS Mt. Holly, NJ

Current Version | Previous Version | Text Only | Print | Product List | Glossary On
Versions: 1 2 3 4 5 6 7 8 9 10 11 12 13 14 15 16 17 18 19 20 21
000
FTUS41 KPHI 210800 AAA
TAFPHL
TAF AMD
KPHL 210850Z 2109/2212 20003KT P6SM VCSH SCT060 BKN100
     FM211300 26006KT P6SM SCT050 BKN150
     FM212100 31006KT P6SM -SHRA BKN050
     FM220200 34003KT P6SM VCSH OVC040
     FM220800 01008KT 6SM -RA SCT025 OVC040=

USA.gov is the U.S. government's official web portal to all federal, state and local government web resources and services.